Airport View

Enter AWOS ICAO identifier for current METAR.

ex. KFNL

KJHN 262235Z AUTO 28008KT 240V310 10SM CLR 04/M07 A3029 RMK AO2 T00441075

26 Feb 2020 22:50

Frequency: 124.175

Phone: 620-492-2100

Other Area AWOS: KULS - K3K3 - KHQG - KEHA

TAF KGCK 261720Z 2618/2718 31015KT P6SM SKC FM271700 33015G25KT P6SM FEW180